Time;durP1;ratioP1;P1;durP2;ratioP2;P2;SDS_P1;SDS_P2;PMS_P1;PMS_P2;Temp;Humidity;BMP_temperature;BMP_pressure;BME280_temperature;BME280_humidity;BME280_pressure;Samples;Min_cycle;Max_cycle;Signal;HPM_P1;HPM_P2
2022/05/16 00:04:01;;;;;;;6.38;5.10;;;;;;;16.09;66.24;96201.75;10410183;27;97411;-68
2022/05/16 00:09:06;;;;;;;8.48;4.93;;;;;;;15.66;67.37;96202.34;10430102;27;98616;-68
2022/05/16 00:14:10;;;;;;;7.90;4.68;;;;;;;15.55;67.25;96194.84;10419181;27;96790;-68
2022/05/16 00:19:13;;;;;;;7.63;5.07;;;;;;;15.72;67.12;96195.53;10432997;27;97671;-68
2022/05/16 00:24:18;;;;;;;5.60;4.70;;;;;;;15.69;66.77;96194.09;10432079;27;99176;-67
2022/05/16 00:29:21;;;;;;;8.35;5.13;;;;;;;15.56;67.65;96194.69;10428773;27;96839;-69
2022/05/16 00:34:24;;;;;;;7.95;4.70;;;;;;;15.42;67.35;96208.66;10430116;27;96809;-68
2022/05/16 00:39:28;;;;;;;7.97;5.10;;;;;;;15.34;68.43;96208.72;10434719;27;96833;-68
2022/05/16 00:44:33;;;;;;;6.50;4.70;;;;;;;15.40;66.90;96211.44;10412152;27;97791;-68
2022/05/16 00:49:38;;;;;;;8.47;5.10;;;;;;;15.22;68.47;96209.16;10400760;27;98616;-68
2022/05/16 00:54:46;;;;;;;6.05;4.53;;;;;;;15.39;67.54;96217.72;10434539;27;97861;-68
2022/05/16 00:59:54;;;;;;;7.25;4.88;;;;;;;15.53;67.14;96213.50;10424640;27;96844;-68
2022/05/16 01:23:48;;;;;;;6.90;5.15;;;;;;;14.73;68.31;96207.72;10415234;28;99622;-67
2022/05/16 01:28:52;;;;;;;6.63;5.40;;;;;;;14.66;69.03;96211.19;10422388;27;96852;-67
2022/05/16 01:33:55;;;;;;;7.75;5.13;;;;;;;14.71;67.98;96220.22;10417616;27;97225;-69
2022/05/16 01:38:59;;;;;;;11.57;5.18;;;;;;;14.83;67.79;96222.44;10421039;27;96974;-68
2022/05/16 01:44:03;;;;;;;6.27;4.53;;;;;;;14.93;67.69;96218.56;10423964;27;97205;-68
2022/05/16 01:49:06;;;;;;;6.97;4.88;;;;;;;14.68;69.46;96220.56;10412125;27;99769;-68
2022/05/16 01:54:11;;;;;;;6.75;5.40;;;;;;;14.39;70.32;96223.03;10442457;27;96908;-68
2022/05/16 01:59:14;;;;;;;7.85;5.88;;;;;;;14.61;69.89;96230.13;10414624;27;100096;-68
2022/05/16 02:04:16;;;;;;;7.65;5.43;;;;;;;14.84;69.66;96216.19;10398177;28;97108;-68
2022/05/16 02:09:20;;;;;;;9.93;6.22;;;;;;;14.99;68.44;96214.44;10409609;28;96880;-68
2022/05/16 02:14:23;;;;;;;6.07;5.10;;;;;;;14.84;69.71;96221.44;10412724;28;98719;-68
2022/05/16 02:19:26;;;;;;;8.32;5.38;;;;;;;14.68;69.82;96215.28;10422566;27;96970;-68
2022/05/16 02:24:40;;;;;;;8.23;5.38;;;;;;;14.65;69.85;96214.84;10435347;27;96803;-68
2022/05/16 02:29:42;;;;;;;10.93;5.53;;;;;;;14.73;69.79;96214.75;10417251;27;96812;-68
2022/05/16 02:34:45;;;;;;;6.50;5.05;;;;;;;14.41;70.30;96221.03;10420744;27;97624;-68
2022/05/16 02:39:50;;;;;;;8.20;5.10;;;;;;;14.17;70.74;96228.00;10413181;27;96841;-68
2022/05/16 02:44:53;;;;;;;6.60;4.32;;;;;;;14.29;70.36;96231.06;10407746;28;96815;-68
2022/05/16 02:49:56;;;;;;;6.55;4.53;;;;;;;14.47;69.18;96229.06;10406529;27;96984;-67
2022/05/16 02:55:01;;;;;;;5.70;4.88;;;;;;;14.56;69.28;96229.84;10406871;27;100263;-68
2022/05/16 03:00:06;;;;;;;10.10;5.32;;;;;;;14.58;69.24;96230.47;10424764;27;96812;-66
2022/05/16 03:05:10;;;;;;;6.97;5.00;;;;;;;14.26;69.60;96236.66;10434791;27;96809;-67
2022/05/16 03:10:15;;;;;;;6.63;4.97;;;;;;;14.07;70.58;96243.13;10404630;27;97006;-68
2022/05/16 03:15:19;;;;;;;7.47;5.22;;;;;;;14.14;69.75;96254.59;10420294;27;99460;-67
2022/05/16 03:20:23;;;;;;;9.20;5.40;;;;;;;14.05;69.60;96255.63;10427803;27;96827;-68
2022/05/16 03:25:27;;;;;;;6.43;5.18;;;;;;;13.82;70.70;96256.34;10422944;27;96848;-68
2022/05/16 03:30:30;;;;;;;6.53;4.90;;;;;;;14.00;70.62;96258.75;10428168;27;97071;-68
2022/05/16 03:35:33;;;;;;;8.50;4.93;;;;;;;13.84;71.01;96256.97;10436953;27;97177;-68
2022/05/16 03:40:45;;;;;;;6.57;4.60;;;;;;;13.61;71.58;96268.19;10424395;27;98560;-68
2022/05/16 03:45:49;;;;;;;6.78;4.70;;;;;;;13.72;70.67;96276.69;10422476;27;98548;-67
2022/05/16 03:50:52;;;;;;;7.88;4.65;;;;;;;13.84;70.22;96278.00;10428767;27;97676;-67
2022/05/16 03:55:56;;;;;;;5.43;4.40;;;;;;;14.10;68.90;96284.84;10403881;28;98362;-68
2022/05/16 04:00:59;;;;;;;7.32;4.53;;;;;;;14.11;68.73;96300.44;10397498;28;98870;-68
2022/05/16 04:06:02;;;;;;;7.93;4.40;;;;;;;14.06;69.02;96300.13;10410426;28;96823;-67
2022/05/16 04:11:07;;;;;;;8.32;4.57;;;;;;;14.21;68.30;96302.88;10397208;28;96896;-68
2022/05/16 04:16:10;;;;;;;9.93;5.07;;;;;;;14.42;67.39;96314.66;10422323;27;98454;-67
2022/05/16 04:21:13;;;;;;;10.40;4.63;;;;;;;14.65;66.75;96323.44;10433833;27;96930;-67
2022/05/16 04:26:17;;;;;;;5.70;4.07;;;;;;;14.82;65.01;96321.56;10421640;27;96904;-68
2022/05/16 04:31:20;;;;;;;7.70;4.03;;;;;;;14.99;64.26;96332.81;10431431;27;97078;-68
2022/05/16 04:36:23;;;;;;;8.32;3.75;;;;;;;15.19;64.19;96327.09;10446077;27;97076;-68
2022/05/16 04:46:48;;;;;;;8.82;3.53;;;;;;;15.47;62.46;96345.81;10425950;27;98570;-68
2022/05/16 04:51:51;;;;;;;5.32;3.35;;;;;;;15.64;61.70;96357.09;10398980;28;98301;-67
2022/05/16 04:56:55;;;;;;;8.88;3.78;;;;;;;15.87;61.09;96363.13;10409553;28;99053;-68
2022/05/16 05:01:58;;;;;;;6.38;3.50;;;;;;;16.11;60.20;96353.38;10418158;27;98224;-66
2022/05/16 05:07:01;;;;;;;6.43;3.20;;;;;;;16.37;60.32;96352.97;10422123;27;97006;-68
2022/05/16 05:17:26;;;;;;;6.65;3.55;;;;;;;16.78;59.34;96359.63;10412912;27;96891;-68
2022/05/16 05:22:29;;;;;;;5.38;3.10;;;;;;;16.91;58.89;96359.78;10442030;27;96842;-69
2022/05/16 05:27:34;;;;;;;6.65;3.15;;;;;;;16.97;58.61;96374.88;10442054;27;100252;-68
2022/05/16 05:32:37;;;;;;;6.35;3.25;;;;;;;16.93;58.83;96384.16;10415295;27;98424;-69
2022/05/16 05:37:40;;;;;;;6.70;3.72;;;;;;;16.77;59.52;96384.38;10414704;27;97083;-68
2022/05/16 05:42:44;;;;;;;7.47;3.45;;;;;;;16.72;59.45;96407.81;10442904;27;96786;-68
2022/05/16 05:47:47;;;;;;;4.65;3.53;;;;;;;16.69;59.68;96422.16;10423941;27;96788;-68
2022/05/16 05:52:50;;;;;;;6.47;3.22;;;;;;;16.73;60.00;96428.72;10414305;27;96878;-66
2022/05/16 05:57:56;;;;;;;7.95;3.63;;;;;;;16.73;60.27;96427.91;10396415;27;99265;-66
2022/05/16 06:03:00;;;;;;;7.22;3.47;;;;;;;16.69;60.44;96440.63;10399217;27;99694;-68
2022/05/16 06:08:04;;;;;;;5.53;3.30;;;;;;;16.55;61.50;96439.63;10407299;27;96857;-67
2022/05/16 06:13:09;;;;;;;6.80;3.40;;;;;;;16.42;62.04;96444.69;10443957;27;96876;-68
2022/05/16 06:18:12;;;;;;;6.38;2.90;;;;;;;16.42;61.54;96455.25;10407993;27;100083;-68
2022/05/16 06:23:15;;;;;;;7.85;3.35;;;;;;;16.51;61.01;96448.91;10421745;27;96902;-67
2022/05/16 06:28:22;;;;;;;6.43;3.13;;;;;;;16.72;60.55;96455.28;10402283;27;97298;-67
2022/05/16 06:33:28;;;;;;;5.82;3.72;;;;;;;16.94;59.74;96459.69;10414432;27;97566;-67
2022/05/16 06:38:34;;;;;;;9.75;3.20;;;;;;;17.06;59.00;96467.13;10425767;27;96731;-68
2022/05/16 06:43:38;;;;;;;4.78;2.58;;;;;;;16.99;59.51;96467.06;10407230;28;96890;-68
2022/05/16 06:48:41;;;;;;;7.32;3.08;;;;;;;16.99;58.70;96478.44;10420299;27;97051;-68
2022/05/16 06:53:44;;;;;;;7.55;2.85;;;;;;;17.00;58.53;96480.09;10404086;27;96852;-68
2022/05/16 06:58:48;;;;;;;6.32;3.28;;;;;;;16.92;58.92;96472.25;10426376;27;96859;-68
2022/05/16 07:03:52;;;;;;;9.57;3.55;;;;;;;16.94;58.71;96483.44;10409684;27;102522;-69
2022/05/16 07:08:55;;;;;;;12.13;3.55;;;;;;;17.07;58.11;96487.25;10425194;27;97749;-68
2022/05/16 07:13:59;;;;;;;8.18;3.55;;;;;;;17.08;57.95;96481.00;10434422;27;97174;-68
2022/05/16 07:19:02;;;;;;;6.85;3.10;;;;;;;17.16;57.55;96488.78;10449873;27;97486;-68
2022/05/16 07:24:08;;;;;;;6.40;3.28;;;;;;;17.23;56.94;96488.88;10434562;27;97698;-69
2022/05/16 07:29:12;;;;;;;7.75;3.05;;;;;;;17.36;56.28;96475.88;10431159;27;96685;-68
2022/05/16 07:34:15;;;;;;;6.55;3.00;;;;;;;17.48;55.19;96465.66;10445115;27;96890;-67
2022/05/16 07:39:18;;;;;;;6.75;2.83;;;;;;;17.57;55.78;96478.53;10428244;27;96969;-68
2022/05/16 07:44:22;;;;;;;6.20;3.15;;;;;;;17.71;56.55;96492.72;10440226;27;97669;-68
2022/05/16 07:49:26;;;;;;;7.50;3.30;;;;;;;17.91;56.97;96497.47;10443494;27;96951;-68
2022/05/16 07:54:29;;;;;;;5.07;3.30;;;;;;;18.00;56.90;96506.91;10449891;27;96718;-68
2022/05/16 07:59:33;;;;;;;7.63;3.20;;;;;;;18.05;55.90;96491.28;10438547;27;97071;-68
2022/05/16 08:04:36;;;;;;;6.25;2.65;;;;;;;18.12;54.75;96489.53;10441592;27;97085;-67
2022/05/16 08:15:01;;;;;;;7.10;2.72;;;;;;;18.43;54.07;96484.91;10444108;27;97060;-68
2022/05/16 08:20:06;;;;;;;5.72;2.78;;;;;;;18.73;52.95;96480.25;10438337;27;99783;-67
2022/05/16 08:25:10;;;;;;;5.40;2.45;;;;;;;19.01;52.60;96476.78;10446272;27;96786;-67
2022/05/16 08:30:15;;;;;;;7.43;2.47;;;;;;;19.30;51.37;96482.84;10445339;27;96895;-68
2022/05/16 08:35:20;;;;;;;6.50;2.50;;;;;;;19.58;50.79;96488.88;10439548;27;96971;-68
2022/05/16 08:40:39;;;;;;;8.98;2.92;;;;;;;19.80;51.09;96496.69;10442180;27;97033;-68
2022/05/16 08:45:54;;;;;;;5.47;2.22;;;;;;;19.99;50.00;96506.59;10450130;27;96680;-68
2022/05/16 08:51:04;;;;;;;6.43;2.45;;;;;;;20.13;48.96;96502.13;10442145;27;96879;-68
2022/05/16 08:56:10;;;;;;;5.70;2.40;;;;;;;20.42;47.74;96488.66;10438159;27;96814;-67
2022/05/16 09:01:19;;;;;;;5.93;2.60;;;;;;;20.67;46.11;96487.03;10444023;27;97010;-67
2022/05/16 09:06:30;;;;;;;7.25;2.67;;;;;;;21.06;45.76;96487.22;10426434;27;97260;-68
2022/05/16 09:11:39;;;;;;;5.82;2.40;;;;;;;21.28;44.28;96483.28;10437755;27;96845;-67
2022/05/16 09:16:50;;;;;;;6.43;2.38;;;;;;;21.37;45.27;96483.06;10439196;27;97481;-68
2022/05/16 09:22:03;;;;;;;5.28;2.20;;;;;;;21.54;44.47;96475.44;10416176;27;96868;-67
2022/05/16 09:27:11;;;;;;;5.82;2.53;;;;;;;21.67;44.65;96475.38;10442187;27;96800;-67
2022/05/16 09:32:22;;;;;;;5.60;2.80;;;;;;;21.82;44.75;96478.56;10437215;27;96839;-67
2022/05/16 09:37:25;;;;;;;6.15;2.72;;;;;;;22.02;45.14;96477.63;10440619;27;96910;-67
2022/05/16 09:42:32;;;;;;;4.70;2.75;;;;;;;22.21;44.35;96471.41;10446035;27;96734;-67
2022/05/16 09:47:41;;;;;;;6.53;2.63;;;;;;;22.30;44.58;96468.44;10436715;27;97031;-67
2022/05/16 09:52:46;;;;;;;5.60;2.53;;;;;;;22.49;44.18;96474.69;10438300;27;97169;-67
2022/05/16 09:57:53;;;;;;;6.85;2.53;;;;;;;22.56;43.85;96468.28;10448334;27;96770;-67
2022/05/16 10:03:02;;;;;;;7.75;2.50;;;;;;;22.61;43.15;96462.28;10440377;27;97445;-67
2022/05/16 10:08:11;;;;;;;5.05;2.38;;;;;;;22.62;43.57;96464.72;10436659;27;96858;-66
2022/05/16 10:13:15;;;;;;;6.38;2.88;;;;;;;22.60;43.60;96461.47;10441654;27;97415;-67
2022/05/16 10:18:20;;;;;;;;;;;;;;;22.39;44.03;96461.84;10444854;27;96878;-67
2022/05/16 10:23:28;;;;;;;6.75;2.78;;;;;;;22.35;42.97;96452.66;10436292;27;96911;-67
2022/05/16 10:28:35;;;;;;;5.85;2.55;;;;;;;22.33;43.51;96446.72;10438004;27;97073;-66
2022/05/16 10:33:42;;;;;;;7.15;2.90;;;;;;;22.25;43.52;96440.66;10448759;27;96894;-67
2022/05/16 10:38:50;;;;;;;5.63;2.30;;;;;;;22.28;43.68;96451.88;10442881;27;96884;-67
2022/05/16 10:44:02;;;;;;;6.10;3.40;;;;;;;22.57;43.53;96448.59;10442769;27;96877;-66
2022/05/16 10:49:12;;;;;;;5.38;2.47;;;;;;;23.00;43.17;96455.75;10450884;27;96897;-67
2022/05/16 10:54:18;;;;;;;4.88;2.42;;;;;;;23.40;42.85;96461.72;10449442;27;97407;-67
2022/05/16 10:59:53;;;;;;;4.68;2.38;;;;;;;23.64;43.24;96452.00;10441624;27;97148;-67
2022/05/16 11:05:17;;;;;;;4.85;2.40;;;;;;;24.00;42.67;96435.09;10422119;27;97381;-67
2022/05/16 11:10:29;;;;;;;6.32;2.92;;;;;;;24.21;42.64;96438.28;10446185;27;97046;-67
2022/05/16 11:15:35;;;;;;;5.22;2.70;;;;;;;24.26;42.98;96449.06;10452210;27;97161;-67
2022/05/16 11:20:43;;;;;;;6.22;3.28;;;;;;;24.12;42.31;96443.97;10442097;27;97100;-66
2022/05/16 11:25:54;;;;;;;5.95;2.88;;;;;;;24.04;42.46;96440.78;10441211;27;96889;-67
2022/05/16 11:31:00;;;;;;;6.72;2.90;;;;;;;23.97;42.92;96432.88;10420032;27;96930;-67
2022/05/16 11:36:15;;;;;;;9.77;2.83;;;;;;;24.05;42.95;96432.53;10444787;27;96986;-67
2022/05/16 11:41:36;;;;;;;5.10;2.80;;;;;;;24.11;42.46;96436.19;10440831;27;96913;-66
2022/05/16 11:46:49;;;;;;;10.27;3.20;;;;;;;24.51;42.35;96430.19;10442123;27;97052;-66
2022/05/16 11:52:35;;;;;;;5.20;2.97;;;;;;;24.82;41.57;96421.03;10419941;27;97064;-66
2022/05/16 12:03:16;;;;;;;6.72;2.95;;;;;;;25.19;41.47;96415.41;10249242;28;96967;-67
2022/05/16 12:08:42;;;;;;;6.68;3.13;;;;;;;25.18;40.98;96408.44;10246684;28;97038;-66
2022/05/16 12:14:09;;;;;;;5.65;2.95;;;;;;;25.18;41.17;96411.13;10246725;28;99648;-66
2022/05/16 12:19:24;;;;;;;8.95;2.92;;;;;;;25.11;41.09;96407.75;10234096;28;96906;-66
2022/05/16 12:24:40;;;;;;;10.40;3.45;;;;;;;25.00;41.49;96412.06;10245971;28;96975;-67
2022/05/16 12:29:52;;;;;;;6.80;2.97;;;;;;;25.16;41.07;96405.16;10246076;28;96972;-66
2022/05/16 12:35:00;;;;;;;5.53;2.97;;;;;;;25.07;41.23;96390.56;10289627;27;96868;-66
2022/05/16 12:40:15;;;;;;;8.80;3.42;;;;;;;24.85;41.80;96388.53;10447066;27;99550;-66
2022/05/16 12:45:31;;;;;;;7.30;2.92;;;;;;;24.80;42.24;96383.03;10446769;27;96919;-66
2022/05/16 12:50:58;;;;;;;5.35;2.80;;;;;;;24.86;42.26;96386.66;10438192;27;96980;-66
2022/05/16 12:56:09;;;;;;;5.32;2.83;;;;;;;24.95;42.41;96376.41;10437749;27;99854;-67
2022/05/16 13:01:22;;;;;;;5.40;3.30;;;;;;;24.85;42.95;96382.34;10444982;27;96747;-66
2022/05/16 13:06:45;;;;;;;6.25;3.58;;;;;;;24.75;43.59;96372.25;10426524;27;96987;-67
2022/05/16 13:12:00;;;;;;;6.23;3.17;;;;;;;24.72;43.81;96362.03;10436861;27;96819;-67
2022/05/16 13:17:07;;;;;;;10.13;3.85;;;;;;;24.90;43.47;96347.72;10437729;27;96951;-66
2022/05/16 13:22:15;;;;;;;7.63;2.90;;;;;;;25.06;43.04;96343.50;10444433;27;96707;-66
2022/05/16 13:32:43;;;;;;;8.00;2.72;;;;;;;25.38;42.30;96337.69;10436756;27;97164;-66
2022/05/16 13:37:49;;;;;;;6.40;3.35;;;;;;;25.57;41.88;96336.47;10437465;27;96794;-66
2022/05/16 13:42:54;;;;;;;5.22;2.90;;;;;;;25.85;41.49;96332.13;10414411;27;96883;-66
2022/05/16 13:48:06;;;;;;;4.57;2.90;;;;;;;26.04;40.80;96329.22;10438566;27;97198;-67
2022/05/16 13:53:09;;;;;;;7.50;3.15;;;;;;;26.35;41.01;96325.16;10432743;27;98470;-67
2022/05/16 13:58:14;;;;;;;6.60;2.70;;;;;;;26.80;39.92;96326.84;10442860;27;97736;-66
2022/05/16 14:03:30;;;;;;;5.90;3.13;;;;;;;27.23;39.19;96319.88;10442752;27;97725;-67
2022/05/16 14:08:38;;;;;;;5.18;2.88;;;;;;;27.71;38.95;96313.91;10440355;27;102083;-66
2022/05/16 14:13:48;;;;;;;5.60;2.53;;;;;;;28.40;37.71;96307.75;10444619;27;97522;-67
2022/05/16 14:19:00;;;;;;;6.47;2.75;;;;;;;29.43;36.31;96311.66;10421980;27;96804;-66
2022/05/16 14:24:08;;;;;;;5.10;2.60;;;;;;;30.31;35.56;96296.38;10447219;27;96807;-67
2022/05/16 14:29:20;;;;;;;4.97;2.60;;;;;;;31.03;34.07;96305.06;10443631;27;96752;-67
2022/05/16 14:34:26;;;;;;;4.67;2.27;;;;;;;31.77;33.21;96301.66;10446320;27;97194;-67
2022/05/16 14:39:32;;;;;;;5.20;2.58;;;;;;;32.56;31.89;96295.31;10453343;27;96823;-67
2022/05/16 14:44:39;;;;;;;6.10;2.35;;;;;;;32.52;31.04;96286.97;10443064;27;96954;-67
2022/05/16 14:49:41;;;;;;;6.28;2.20;;;;;;;32.10;31.29;96285.75;10443668;27;97039;-66
2022/05/16 14:54:50;;;;;;;5.18;2.20;;;;;;;32.49;31.08;96277.53;10453611;27;97392;-67
2022/05/16 14:59:54;;;;;;;4.03;2.22;;;;;;;33.33;29.29;96270.03;10443551;27;96851;-67
2022/05/16 15:04:57;;;;;;;5.35;2.30;;;;;;;34.01;29.13;96268.69;10441676;27;97210;-67
2022/05/16 15:10:00;;;;;;;3.08;1.77;;;;;;;34.26;28.38;96269.34;10451838;27;97003;-67
2022/05/16 15:15:10;;;;;;;6.00;2.22;;;;;;;34.65;28.03;96276.22;10446460;27;96863;-67
2022/05/16 15:20:14;;;;;;;4.65;2.30;;;;;;;35.21;28.08;96264.22;10441066;27;97184;-67
2022/05/16 15:25:18;;;;;;;4.70;2.50;;;;;;;35.62;26.37;96266.00;10446655;27;96843;-67
2022/05/16 15:30:22;;;;;;;3.03;2.28;;;;;;;36.17;25.95;96267.66;10428941;27;96806;-67
2022/05/16 15:35:25;;;;;;;6.10;2.45;;;;;;;36.04;25.93;96258.47;10440923;27;99419;-67
2022/05/16 15:40:28;;;;;;;4.00;2.33;;;;;;;36.30;26.08;96262.47;10444066;27;96991;-68
2022/05/16 15:45:33;;;;;;;5.63;2.25;;;;;;;36.36;25.08;96261.22;10449746;27;96712;-67
2022/05/16 15:50:37;;;;;;;4.00;2.15;;;;;;;36.42;25.61;96260.75;10440552;27;96981;-66
2022/05/16 15:55:41;;;;;;;3.72;2.17;;;;;;;36.64;25.57;96259.88;10442498;27;97396;-67
2022/05/16 16:00:48;;;;;;;5.05;2.45;;;;;;;36.87;24.62;96259.00;10451723;27;96816;-68
2022/05/16 16:11:11;;;;;;;4.93;2.20;;;;;;;36.60;25.64;96252.66;10439632;27;96846;-67
2022/05/16 16:16:16;;;;;;;5.57;2.22;;;;;;;37.07;24.73;96260.31;10446176;27;97159;-67
2022/05/16 16:21:20;;;;;;;3.60;1.90;;;;;;;36.68;24.50;96257.34;10448026;27;96872;-67
2022/05/16 16:26:23;;;;;;;4.30;2.10;;;;;;;36.68;24.01;96257.34;10439727;27;97502;-67
2022/05/16 16:31:28;;;;;;;4.40;2.40;;;;;;;36.72;24.67;96258.31;10442495;27;96767;-67
2022/05/16 16:36:32;;;;;;;5.30;2.30;;;;;;;36.27;25.42;96258.44;10448471;27;96806;-67
2022/05/16 16:41:34;;;;;;;5.10;2.50;;;;;;;36.37;25.30;96255.44;10438713;27;97017;-67
2022/05/16 16:46:41;;;;;;;4.72;2.40;;;;;;;36.32;26.00;96254.81;10440435;27;96867;-67
2022/05/16 17:02:31;;;;;;;5.07;2.40;;;;;;;36.79;24.79;96263.31;10438050;27;97031;-68
2022/05/16 17:07:36;;;;;;;6.05;2.70;;;;;;;36.93;24.38;96263.19;10440752;27;96890;-67
2022/05/16 17:12:40;;;;;;;4.20;2.17;;;;;;;37.00;24.54;96268.94;10425097;27;97539;-67
2022/05/16 17:17:45;;;;;;;4.78;2.17;;;;;;;36.82;24.73;96273.56;10421848;27;96897;-68
2022/05/16 17:22:48;;;;;;;4.03;2.40;;;;;;;36.64;25.02;96283.56;10436969;27;96931;-68
2022/05/16 17:27:51;;;;;;;4.70;2.22;;;;;;;36.29;25.70;96280.69;10420876;27;97948;-67
2022/05/16 17:32:55;;;;;;;4.10;2.10;;;;;;;36.35;25.63;96268.56;10425633;27;96788;-67
2022/05/16 17:37:59;;;;;;;4.80;2.38;;;;;;;35.87;26.39;96272.75;10414144;27;98077;-67
2022/05/16 17:43:02;;;;;;;4.53;2.38;;;;;;;36.00;26.51;96287.41;10429468;27;98415;-67
2022/05/16 17:48:08;;;;;;;6.63;2.55;;;;;;;35.67;26.83;96284.91;10413598;27;96887;-67
2022/05/16 17:53:11;;;;;;;6.78;2.58;;;;;;;35.09;27.40;96291.88;10405612;27;96740;-67
2022/05/16 17:58:14;;;;;;;5.13;2.55;;;;;;;32.95;30.25;96297.81;10421686;27;98294;-67
2022/05/16 18:03:18;;;;;;;8.63;3.17;;;;;;;31.17;32.61;96291.78;10427361;27;97056;-67
2022/05/16 18:08:21;;;;;;;6.22;2.92;;;;;;;29.72;34.38;96298.53;10433284;27;97055;-66
2022/05/16 18:13:25;;;;;;;6.43;2.75;;;;;;;28.46;36.59;96305.88;10408227;27;97162;-66
2022/05/16 18:18:29;;;;;;;3.15;2.15;;;;;;;27.40;35.27;96311.69;10422817;27;96944;-66
2022/05/16 18:23:32;;;;;;;4.68;2.40;;;;;;;26.75;36.86;96318.72;10413907;27;98566;-67
2022/05/16 18:28:35;;;;;;;6.17;2.50;;;;;;;26.43;34.91;96322.03;10410950;28;96863;-66
2022/05/16 18:33:39;;;;;;;6.32;2.72;;;;;;;26.23;34.98;96327.91;10415998;27;96855;-66
2022/05/16 18:38:42;;;;;;;6.25;2.50;;;;;;;25.62;37.05;96333.88;10403564;28;97287;-66
2022/05/16 18:54:44;;;;;;;6.28;2.22;;;;;;;24.81;37.74;96343.78;10391407;27;96908;-66
2022/05/16 18:59:47;;;;;;;5.73;2.50;;;;;;;24.51;37.40;96350.09;10392748;28;97135;-66
2022/05/16 19:04:51;;;;;;;5.25;2.85;;;;;;;24.53;38.96;96357.88;10399121;27;98992;-66
2022/05/16 19:09:56;;;;;;;6.35;3.00;;;;;;;24.40;39.23;96362.41;10393048;28;97918;-66
2022/05/16 19:14:59;;;;;;;7.60;4.10;;;;;;;24.38;39.74;96361.78;10404172;27;96971;-66
2022/05/16 19:20:04;;;;;;;6.72;3.20;;;;;;;24.00;41.32;96370.22;10406715;27;96987;-66
2022/05/16 19:25:10;;;;;;;4.13;2.22;;;;;;;23.25;41.11;96374.13;10390476;27;97256;-66
2022/05/16 19:35:43;;;;;;;5.60;2.75;;;;;;;23.08;42.01;96389.91;10407093;27;100684;-66
2022/05/16 19:40:47;;;;;;;5.85;3.00;;;;;;;22.68;42.38;96401.78;10392658;27;100693;-66
2022/05/16 19:45:51;;;;;;;4.97;2.85;;;;;;;22.32;44.36;96402.50;10386066;27;96912;-65
2022/05/16 19:50:56;;;;;;;4.75;2.85;;;;;;;21.84;45.68;96410.03;10416862;27;96757;-66
2022/05/16 19:55:59;;;;;;;;;;;;;;;21.39;45.32;96425.19;10408494;27;98227;-66
2022/05/16 20:01:02;;;;;;;6.38;3.03;;;;;;;21.10;47.25;96428.16;10411152;27;97623;-66
2022/05/16 20:06:07;;;;;;;7.72;3.55;;;;;;;20.83;48.22;96421.28;10407887;27;98211;-66
2022/05/16 20:11:11;;;;;;;6.07;3.13;;;;;;;20.68;47.80;96434.75;10411308;28;96863;-66
2022/05/16 20:16:14;;;;;;;5.33;3.27;;;;;;;20.53;48.54;96443.78;10412772;27;96757;-66
2022/05/16 20:21:18;;;;;;;6.05;3.03;;;;;;;20.20;49.70;96441.13;10413286;27;98248;-66
2022/05/16 20:26:21;;;;;;;6.07;2.97;;;;;;;19.76;49.42;96445.09;10411793;27;96978;-66
2022/05/16 20:31:24;;;;;;;5.30;3.00;;;;;;;19.43;50.67;96454.56;10410334;28;98461;-66
2022/05/16 20:36:29;;;;;;;3.75;2.45;;;;;;;19.20;50.79;96451.44;10415311;27;98500;-66
2022/05/16 20:41:32;;;;;;;;;;;;;;;19.06;49.90;96463.78;10417832;27;96800;-67
2022/05/16 20:46:35;;;;;;;5.47;2.80;;;;;;;18.94;49.57;96458.22;10407029;28;97024;-66
2022/05/16 20:51:40;;;;;;;7.65;3.03;;;;;;;18.91;50.10;96461.25;10419627;27;98717;-66
2022/05/16 20:56:43;;;;;;;7.35;2.70;;;;;;;18.79;49.46;96465.41;10415296;27;97198;-66
2022/05/16 21:01:46;;;;;;;4.65;2.50;;;;;;;18.48;50.47;96464.81;10399119;28;100557;-66
2022/05/16 21:06:50;;;;;;;4.60;2.22;;;;;;;18.35;50.94;96467.34;10406283;27;96851;-66
2022/05/16 21:11:53;;;;;;;5.13;2.50;;;;;;;18.18;50.35;96458.84;10404710;28;97716;-66
2022/05/16 21:16:56;;;;;;;5.80;2.17;;;;;;;18.08;50.67;96458.34;10403277;27;98915;-66
2022/05/16 21:22:00;;;;;;;6.95;2.20;;;;;;;18.04;50.08;96457.91;10415213;27;97124;-66
2022/05/16 21:27:05;;;;;;;5.28;2.28;;;;;;;17.91;50.38;96455.16;10401153;27;97449;-66
2022/05/16 21:32:09;;;;;;;6.22;2.40;;;;;;;17.84;50.47;96451.63;10395043;27;97043;-66
2022/05/16 21:37:15;;;;;;;6.40;2.22;;;;;;;17.76;50.36;96457.81;10396019;28;97372;-66
2022/05/16 21:42:18;;;;;;;4.05;1.83;;;;;;;17.75;50.30;96464.94;10401538;27;96908;-65
2022/05/16 21:47:21;;;;;;;4.80;2.22;;;;;;;17.84;50.35;96464.84;10393574;27;97275;-66
2022/05/16 21:52:26;;;;;;;5.60;2.35;;;;;;;17.74;50.77;96468.56;10388826;27;97975;-66
2022/05/16 21:57:29;;;;;;;7.07;2.72;;;;;;;17.70;51.01;96475.25;10391233;27;96722;-66
2022/05/16 22:02:32;;;;;;;5.95;2.28;;;;;;;17.87;50.78;96469.75;10386882;28;96731;-66
2022/05/16 22:07:36;;;;;;;5.93;2.65;;;;;;;17.83;51.08;96469.28;10391630;27;96874;-66
2022/05/16 22:12:39;;;;;;;4.80;2.20;;;;;;;17.45;52.79;96466.81;10413715;27;96978;-66
2022/05/16 22:17:42;;;;;;;7.00;2.58;;;;;;;17.47;52.66;96464.00;10408702;27;100583;-66
2022/05/16 22:22:47;;;;;;;5.55;2.70;;;;;;;17.46;53.27;96465.03;10412599;28;98052;-66
2022/05/16 22:27:51;;;;;;;4.47;2.58;;;;;;;17.47;53.27;96466.63;10413915;27;96760;-65
2022/05/16 22:32:55;;;;;;;4.10;2.50;;;;;;;17.35;54.13;96472.41;10430189;27;96937;-66
2022/05/16 22:37:59;;;;;;;6.00;2.60;;;;;;;17.21;53.67;96470.59;10402771;28;100425;-65
2022/05/16 22:43:02;;;;;;;6.13;2.70;;;;;;;17.04;54.94;96474.44;10416587;27;98396;-66
2022/05/16 22:48:05;;;;;;;6.20;2.75;;;;;;;16.90;55.15;96470.78;10394003;28;97901;-66
2022/05/16 22:53:10;;;;;;;4.38;2.53;;;;;;;16.91;55.28;96465.31;10400058;27;97135;-65
2022/05/16 22:58:13;;;;;;;4.05;2.60;;;;;;;16.85;54.05;96479.25;10397365;27;96820;-66
2022/05/16 23:03:32;;;;;;;6.53;2.40;;;;;;;16.80;54.94;96473.72;10401876;28;100928;-66
2022/05/16 23:08:37;;;;;;;6.35;2.88;;;;;;;16.36;56.86;96471.78;10437673;27;102881;-66
2022/05/16 23:13:40;;;;;;;7.15;2.72;;;;;;;16.04;57.17;96478.94;10444360;27;96979;-66
2022/05/16 23:18:43;;;;;;;5.82;2.78;;;;;;;15.65;58.93;96472.78;10436871;27;99222;-67
2022/05/16 23:23:47;;;;;;;6.78;2.92;;;;;;;15.59;58.83;96476.09;10441663;27;98196;-66
2022/05/16 23:28:49;;;;;;;7.28;3.20;;;;;;;15.51;59.37;96470.84;10431623;27;100563;-66
2022/05/16 23:33:52;;;;;;;5.82;3.33;;;;;;;15.47;58.80;96469.56;10437754;27;98443;-66
2022/05/16 23:38:57;;;;;;;4.25;2.78;;;;;;;15.44;59.02;96468.09;10419639;27;96887;-66
2022/05/16 23:44:00;;;;;;;6.47;2.67;;;;;;;15.41;59.15;96476.34;10431898;27;97985;-66
2022/05/16 23:49:03;;;;;;;5.97;2.80;;;;;;;15.42;58.78;96475.34;10418611;28;100454;-66
2022/05/16 23:54:07;;;;;;;7.15;3.05;;;;;;;15.41;59.52;96467.59;10432510;27;96832;-66
2022/05/16 23:59:11;;;;;;;6.07;2.90;;;;;;;15.32;59.25;96470.28;10440639;27;96747;-66
